TAF and METAR

METAR for Qaisumah Domestic Airport

OEPA 030300Z 01006KT CAVOK 29/10 Q1006 NOSIG
Report created 3. jun 05:00
wind 6 knots from N (010°) Clear sky Temperature 29° with dewpoint at 10° (Humidity 30.71%) Pressure 1006 hPa no significant weather change expected the next couple of hours

TAF for Qaisumah Domestic Airport

TAF OEPA 022300Z 0300/0406 36008KT 7000 NSC BECMG 0302/0304 04014KT TEMPO 0303/0312 3000 BLDU
Report created 3. jun 01:00

between 3. jun 02:00 - 4. jun 08:00

wind 8 knots from N (360°) visibility 7000 meters No significant clouds.

becoming between 3. jun 04:00 - 3. jun 06:00

wind 14 knots from NE (040°)

temporarily between 3. jun 05:00 - 3. jun 14:00

visibility 3000 meters blowing widespread dust
Qaisumah Domestic Airport in Saudi Arabia at 355m

Latest 5 airports